Weather at Weda Bay Airport

Public forecast

Using degrees Celsius for public forecast. Weather courtesy of forecast.io.

Closest aviation weather report (METAR) to Weda Bay Airport

Closest report is Sam Ratulangi Airport, 192.5 nm (356.5 km) WNW. Retrieved 2021/10/26 04:30 UTC (0 seconds ago):

WAMM 260430Z 03005KT 290V070 9999 SCT020 33/24 Q1008 NOSIG

Closest aviation forecast (TAF) to Weda Bay Airport

Closest forecast is Sultan Babullah Airport, 40.3 nm (74.6 km) WNW. Retrieved UTC (0 seconds ago):